sensor_id;sensor_type;location;lat;lon;timestamp;pressure;altitude;pressure_sealevel;temperature;humidity
4024;BME280;2026;51.002;13.668;2023-01-31T00:00:26;98990.47;;;3.15;82.24
4024;BME280;2026;51.002;13.668;2023-01-31T00:05:30;98982.72;;;3.07;82.37
4024;BME280;2026;51.002;13.668;2023-01-31T00:10:33;98988.22;;;3.12;81.78
4024;BME280;2026;51.002;13.668;2023-01-31T00:15:36;98976.09;;;3.04;81.46
4024;BME280;2026;51.002;13.668;2023-01-31T00:20:41;98988.22;;;3.12;81.45
4024;BME280;2026;51.002;13.668;2023-01-31T00:25:45;99001.84;;;3.05;81.59
4024;BME280;2026;51.002;13.668;2023-01-31T00:30:47;98990.47;;;3.15;81.43
4024;BME280;2026;51.002;13.668;2023-01-31T00:35:52;99007.31;;;3.02;83.28
4024;BME280;2026;51.002;13.668;2023-01-31T00:40:56;98999.41;;;3.04;83.44
4024;BME280;2026;51.002;13.668;2023-01-31T00:45:59;99013.50;;;2.85;85.81
4024;BME280;2026;51.002;13.668;2023-01-31T00:51:04;99020.78;;;2.64;86.21
4024;BME280;2026;51.002;13.668;2023-01-31T00:56:09;99034.47;;;2.40;87.11
4024;BME280;2026;51.002;13.668;2023-01-31T01:01:14;99034.81;;;2.37;86.77
4024;BME280;2026;51.002;13.668;2023-01-31T01:06:21;99059.16;;;2.18;87.42
4024;BME280;2026;51.002;13.668;2023-01-31T01:11:27;99074.03;;;2.16;87.95
4024;BME280;2026;51.002;13.668;2023-01-31T01:16:32;99067.00;;;2.00;87.76
4024;BME280;2026;51.002;13.668;2023-01-31T01:21:38;99073.50;;;2.04;86.18
4024;BME280;2026;51.002;13.668;2023-01-31T01:26:42;99086.81;;;2.17;85.08
4024;BME280;2026;51.002;13.668;2023-01-31T01:31:45;99108.50;;;2.25;84.64
4024;BME280;2026;51.002;13.668;2023-01-31T01:36:49;99108.97;;;2.20;87.65
4024;BME280;2026;51.002;13.668;2023-01-31T01:41:52;99095.84;;;2.13;89.68
4024;BME280;2026;51.002;13.668;2023-01-31T01:46:55;99105.22;;;2.14;88.77
4024;BME280;2026;51.002;13.668;2023-01-31T01:52:02;99109.41;;;2.07;89.07
4024;BME280;2026;51.002;13.668;2023-01-31T01:57:07;99116.53;;;2.13;89.30
4024;BME280;2026;51.002;13.668;2023-01-31T02:02:13;99120.09;;;2.12;89.06
4024;BME280;2026;51.002;13.668;2023-01-31T02:07:18;99122.72;;;2.20;88.49
4024;BME280;2026;51.002;13.668;2023-01-31T02:12:21;99124.41;;;2.38;88.18
4024;BME280;2026;51.002;13.668;2023-01-31T02:17:25;99129.41;;;2.40;88.63
4024;BME280;2026;51.002;13.668;2023-01-31T02:22:32;99118.94;;;2.41;88.56
4024;BME280;2026;51.002;13.668;2023-01-31T02:33:20;99151.59;;;2.42;87.41
4024;BME280;2026;51.002;13.668;2023-01-31T02:38:35;99150.16;;;2.48;85.95
4024;BME280;2026;51.002;13.668;2023-01-31T02:43:48;99162.00;;;2.59;85.56
4024;BME280;2026;51.002;13.668;2023-01-31T02:49:17;99167.47;;;2.56;85.68
4024;BME280;2026;51.002;13.668;2023-01-31T02:54:40;99168.63;;;2.53;85.41
4024;BME280;2026;51.002;13.668;2023-01-31T02:59:57;99183.16;;;2.46;86.58
4024;BME280;2026;51.002;13.668;2023-01-31T03:05:02;99198.69;;;2.46;85.56
4024;BME280;2026;51.002;13.668;2023-01-31T03:10:15;99216.75;;;2.38;87.14
4024;BME280;2026;51.002;13.668;2023-01-31T03:15:35;99221.16;;;2.45;87.05
4024;BME280;2026;51.002;13.668;2023-01-31T03:21:04;99236.66;;;2.45;87.45
4024;BME280;2026;51.002;13.668;2023-01-31T03:26:09;99247.16;;;2.44;87.64
4024;BME280;2026;51.002;13.668;2023-01-31T03:31:16;99238.06;;;2.31;88.17
4024;BME280;2026;51.002;13.668;2023-01-31T03:36:29;99252.31;;;2.35;89.46
4024;BME280;2026;51.002;13.668;2023-01-31T03:41:54;99285.59;;;2.04;91.48
4024;BME280;2026;51.002;13.668;2023-01-31T03:47:03;99272.09;;;1.74;93.00
4024;BME280;2026;51.002;13.668;2023-01-31T03:52:10;99277.69;;;1.51;94.73
4024;BME280;2026;51.002;13.668;2023-01-31T03:57:19;99279.91;;;1.46;94.59
4024;BME280;2026;51.002;13.668;2023-01-31T04:02:29;99283.53;;;1.53;94.85
4024;BME280;2026;51.002;13.668;2023-01-31T04:07:35;99289.06;;;1.58;94.58
4024;BME280;2026;51.002;13.668;2023-01-31T04:12:40;99264.41;;;1.64;94.49
4024;BME280;2026;51.002;13.668;2023-01-31T04:17:43;99258.72;;;1.78;92.38
4024;BME280;2026;51.002;13.668;2023-01-31T04:22:47;99270.22;;;1.84;92.63
4024;BME280;2026;51.002;13.668;2023-01-31T04:27:50;99274.72;;;2.00;91.51
4024;BME280;2026;51.002;13.668;2023-01-31T04:32:53;99278.09;;;2.01;91.45
4024;BME280;2026;51.002;13.668;2023-01-31T04:37:57;99281.88;;;2.06;90.74
4024;BME280;2026;51.002;13.668;2023-01-31T04:43:00;99278.84;;;2.11;90.51
4024;BME280;2026;51.002;13.668;2023-01-31T04:48:04;99279.41;;;2.23;89.72
4024;BME280;2026;51.002;13.668;2023-01-31T04:53:09;99289.69;;;2.15;90.14
4024;BME280;2026;51.002;13.668;2023-01-31T04:58:12;99289.91;;;2.21;89.50
4024;BME280;2026;51.002;13.668;2023-01-31T05:03:15;99297.97;;;2.18;88.77
4024;BME280;2026;51.002;13.668;2023-01-31T05:08:19;99283.31;;;2.27;88.40
4024;BME280;2026;51.002;13.668;2023-01-31T05:13:22;99310.13;;;2.26;88.95
4024;BME280;2026;51.002;13.668;2023-01-31T05:18:26;99307.41;;;2.28;88.91
4024;BME280;2026;51.002;13.668;2023-01-31T05:23:30;99288.69;;;2.34;87.54
4024;BME280;2026;51.002;13.668;2023-01-31T05:28:34;99301.00;;;2.40;88.27
4024;BME280;2026;51.002;13.668;2023-01-31T05:33:37;99309.19;;;2.54;87.83
4024;BME280;2026;51.002;13.668;2023-01-31T05:38:41;99317.25;;;2.50;86.99
4024;BME280;2026;51.002;13.668;2023-01-31T05:43:44;99312.22;;;2.49;87.24
4024;BME280;2026;51.002;13.668;2023-01-31T05:48:47;99305.06;;;2.43;87.40
4024;BME280;2026;51.002;13.668;2023-01-31T05:53:51;99305.94;;;2.52;87.59
4024;BME280;2026;51.002;13.668;2023-01-31T05:58:55;99303.59;;;2.40;88.06
4024;BME280;2026;51.002;13.668;2023-01-31T06:03:58;99298.41;;;2.40;89.00
4024;BME280;2026;51.002;13.668;2023-01-31T06:09:02;99306.34;;;2.39;88.32
4024;BME280;2026;51.002;13.668;2023-01-31T06:14:06;99323.00;;;2.36;89.04
4024;BME280;2026;51.002;13.668;2023-01-31T06:19:09;99319.81;;;2.42;88.47
4024;BME280;2026;51.002;13.668;2023-01-31T06:24:14;99319.44;;;2.37;88.48
4024;BME280;2026;51.002;13.668;2023-01-31T06:29:16;99320.25;;;2.38;88.87
4024;BME280;2026;51.002;13.668;2023-01-31T06:34:19;99334.97;;;2.37;88.00
4024;BME280;2026;51.002;13.668;2023-01-31T06:39:24;99342.06;;;2.35;88.43
4024;BME280;2026;51.002;13.668;2023-01-31T06:44:27;99350.69;;;2.44;88.06
4024;BME280;2026;51.002;13.668;2023-01-31T06:49:31;99346.47;;;2.43;88.56
4024;BME280;2026;51.002;13.668;2023-01-31T06:54:35;99338.72;;;2.43;87.44
4024;BME280;2026;51.002;13.668;2023-01-31T06:59:38;99336.94;;;2.43;87.86
4024;BME280;2026;51.002;13.668;2023-01-31T07:04:40;99351.38;;;2.46;87.18
4024;BME280;2026;51.002;13.668;2023-01-31T07:09:45;99340.56;;;2.50;86.98
4024;BME280;2026;51.002;13.668;2023-01-31T07:14:48;99361.25;;;2.50;87.08
4024;BME280;2026;51.002;13.668;2023-01-31T07:19:51;99356.47;;;2.64;86.12
4024;BME280;2026;51.002;13.668;2023-01-31T07:24:55;99361.56;;;2.74;85.60
4024;BME280;2026;51.002;13.668;2023-01-31T07:29:58;99355.53;;;2.91;85.38
4024;BME280;2026;51.002;13.668;2023-01-31T07:35:01;99352.63;;;2.95;85.21
4024;BME280;2026;51.002;13.668;2023-01-31T07:40:07;99357.44;;;2.89;85.37
4024;BME280;2026;51.002;13.668;2023-01-31T07:45:11;99363.59;;;2.88;84.97
4024;BME280;2026;51.002;13.668;2023-01-31T07:50:24;99365.66;;;2.85;85.78
4024;BME280;2026;51.002;13.668;2023-01-31T07:55:29;99377.59;;;2.77;85.60
4024;BME280;2026;51.002;13.668;2023-01-31T08:00:32;99368.59;;;2.82;84.95
4024;BME280;2026;51.002;13.668;2023-01-31T08:05:52;99373.34;;;2.95;84.29
4024;BME280;2026;51.002;13.668;2023-01-31T08:10:57;99382.69;;;3.22;82.44
4024;BME280;2026;51.002;13.668;2023-01-31T08:16:00;99379.66;;;3.27;82.12
4024;BME280;2026;51.002;13.668;2023-01-31T08:21:04;99379.69;;;3.43;80.20
4024;BME280;2026;51.002;13.668;2023-01-31T08:26:11;99374.75;;;3.67;78.82
4024;BME280;2026;51.002;13.668;2023-01-31T08:31:17;99374.56;;;3.60;79.31
4024;BME280;2026;51.002;13.668;2023-01-31T08:36:23;99391.53;;;3.46;78.77
4024;BME280;2026;51.002;13.668;2023-01-31T08:41:28;99382.13;;;3.37;78.76
4024;BME280;2026;51.002;13.668;2023-01-31T08:46:33;99381.00;;;3.39;78.91
4024;BME280;2026;51.002;13.668;2023-01-31T08:51:37;99354.59;;;3.44;78.56
4024;BME280;2026;51.002;13.668;2023-01-31T08:56:41;99364.19;;;3.60;77.30
4024;BME280;2026;51.002;13.668;2023-01-31T09:01:44;99350.44;;;3.59;76.93
4024;BME280;2026;51.002;13.668;2023-01-31T09:06:47;99366.69;;;3.86;75.75
4024;BME280;2026;51.002;13.668;2023-01-31T09:11:52;99370.75;;;4.06;76.08
4024;BME280;2026;51.002;13.668;2023-01-31T09:16:55;99354.06;;;4.25;74.43
4024;BME280;2026;51.002;13.668;2023-01-31T09:21:57;99352.75;;;4.12;73.70
4024;BME280;2026;51.002;13.668;2023-01-31T09:27:02;99347.88;;;4.51;73.08
4024;BME280;2026;51.002;13.668;2023-01-31T09:32:06;99347.34;;;4.80;72.01
4024;BME280;2026;51.002;13.668;2023-01-31T09:37:09;99350.13;;;4.70;71.95
4024;BME280;2026;51.002;13.668;2023-01-31T09:42:18;99340.03;;;4.76;71.62
4024;BME280;2026;51.002;13.668;2023-01-31T09:47:26;99330.78;;;4.73;72.00
4024;BME280;2026;51.002;13.668;2023-01-31T09:52:31;99324.25;;;4.86;72.28
4024;BME280;2026;51.002;13.668;2023-01-31T09:57:41;99320.09;;;5.16;71.40
4024;BME280;2026;51.002;13.668;2023-01-31T10:03:12;99322.72;;;5.39;70.28
4024;BME280;2026;51.002;13.668;2023-01-31T10:08:26;99312.94;;;5.18;70.97
4024;BME280;2026;51.002;13.668;2023-01-31T10:13:36;99302.25;;;5.05;70.63
4024;BME280;2026;51.002;13.668;2023-01-31T10:18:44;99297.78;;;4.82;71.24
4024;BME280;2026;51.002;13.668;2023-01-31T10:23:51;99296.66;;;4.84;70.60
4024;BME280;2026;51.002;13.668;2023-01-31T10:29:01;99285.03;;;4.72;70.09
4024;BME280;2026;51.002;13.668;2023-01-31T10:34:10;99273.91;;;4.95;70.44
4024;BME280;2026;51.002;13.668;2023-01-31T10:39:20;99281.94;;;4.68;69.96
4024;BME280;2026;51.002;13.668;2023-01-31T10:44:34;99270.41;;;4.63;69.12
4024;BME280;2026;51.002;13.668;2023-01-31T10:49:39;99255.50;;;4.65;69.45
4024;BME280;2026;51.002;13.668;2023-01-31T10:54:51;99239.41;;;4.69;70.37
4024;BME280;2026;51.002;13.668;2023-01-31T10:59:57;99235.78;;;4.79;69.39
4024;BME280;2026;51.002;13.668;2023-01-31T11:05:01;99230.66;;;4.62;69.98
4024;BME280;2026;51.002;13.668;2023-01-31T11:10:21;99230.31;;;4.65;69.02
4024;BME280;2026;51.002;13.668;2023-01-31T11:15:27;99210.19;;;4.67;69.41
4024;BME280;2026;51.002;13.668;2023-01-31T11:20:34;99199.72;;;4.84;69.61
4024;BME280;2026;51.002;13.668;2023-01-31T11:25:37;99166.91;;;4.91;68.32
4024;BME280;2026;51.002;13.668;2023-01-31T11:30:46;99176.97;;;4.86;68.22
4024;BME280;2026;51.002;13.668;2023-01-31T11:35:51;99167.13;;;5.05;68.48
4024;BME280;2026;51.002;13.668;2023-01-31T11:40:54;99157.88;;;5.25;67.46
4024;BME280;2026;51.002;13.668;2023-01-31T11:46:00;99156.91;;;5.27;67.18
4024;BME280;2026;51.002;13.668;2023-01-31T11:51:04;99155.91;;;5.28;67.80
4024;BME280;2026;51.002;13.668;2023-01-31T11:56:11;99145.72;;;5.26;67.22
4024;BME280;2026;51.002;13.668;2023-01-31T12:01:18;99141.97;;;5.44;67.42
4024;BME280;2026;51.002;13.668;2023-01-31T12:06:27;99133.56;;;5.57;67.02
4024;BME280;2026;51.002;13.668;2023-01-31T12:11:32;99112.56;;;5.43;67.76
4024;BME280;2026;51.002;13.668;2023-01-31T12:16:36;99114.91;;;5.38;67.72
4024;BME280;2026;51.002;13.668;2023-01-31T12:21:49;99084.41;;;5.32;67.87
4024;BME280;2026;51.002;13.668;2023-01-31T12:26:58;99072.56;;;5.44;67.97
4024;BME280;2026;51.002;13.668;2023-01-31T12:32:19;99077.50;;;5.39;67.66
4024;BME280;2026;51.002;13.668;2023-01-31T12:37:36;99064.66;;;5.22;67.89
4024;BME280;2026;51.002;13.668;2023-01-31T12:42:53;99088.47;;;5.11;69.02
4024;BME280;2026;51.002;13.668;2023-01-31T12:48:20;99070.50;;;5.01;70.68
4024;BME280;2026;51.002;13.668;2023-01-31T12:53:46;99053.81;;;4.95;71.91
4024;BME280;2026;51.002;13.668;2023-01-31T12:58:57;99035.34;;;4.90;73.46
4024;BME280;2026;51.002;13.668;2023-01-31T13:04:28;99020.47;;;4.84;74.09
4024;BME280;2026;51.002;13.668;2023-01-31T13:09:34;99009.88;;;4.70;74.23
4024;BME280;2026;51.002;13.668;2023-01-31T13:14:40;99006.75;;;4.75;74.93
4024;BME280;2026;51.002;13.668;2023-01-31T13:19:48;99020.38;;;4.54;76.58
4024;BME280;2026;51.002;13.668;2023-01-31T13:24:58;99009.91;;;4.39;76.85
4024;BME280;2026;51.002;13.668;2023-01-31T13:30:16;98992.13;;;4.51;77.83
4024;BME280;2026;51.002;13.668;2023-01-31T13:35:26;98977.03;;;4.31;79.13
4024;BME280;2026;51.002;13.668;2023-01-31T13:40:35;98953.78;;;4.14;79.99
4024;BME280;2026;51.002;13.668;2023-01-31T13:45:42;98942.44;;;3.84;81.06
4024;BME280;2026;51.002;13.668;2023-01-31T13:50:52;98911.66;;;3.81;81.84
4024;BME280;2026;51.002;13.668;2023-01-31T13:55:56;98920.94;;;3.75;82.42
4024;BME280;2026;51.002;13.668;2023-01-31T14:01:03;98931.75;;;3.87;81.70
4024;BME280;2026;51.002;13.668;2023-01-31T14:06:09;98932.81;;;3.61;82.88
4024;BME280;2026;51.002;13.668;2023-01-31T14:11:31;98947.13;;;3.57;84.06
4024;BME280;2026;51.002;13.668;2023-01-31T14:16:38;98931.22;;;3.60;83.54
4024;BME280;2026;51.002;13.668;2023-01-31T14:21:50;98927.31;;;3.64;84.24
4024;BME280;2026;51.002;13.668;2023-01-31T14:26:54;98930.41;;;3.59;82.61
4024;BME280;2026;51.002;13.668;2023-01-31T14:31:57;98945.31;;;3.66;83.76
4024;BME280;2026;51.002;13.668;2023-01-31T14:37:07;98933.34;;;3.56;84.14
4024;BME280;2026;51.002;13.668;2023-01-31T14:42:29;98911.44;;;3.59;83.38
4024;BME280;2026;51.002;13.668;2023-01-31T14:47:49;98914.25;;;3.49;84.14
4024;BME280;2026;51.002;13.668;2023-01-31T14:53:06;98901.59;;;3.54;84.11
4024;BME280;2026;51.002;13.668;2023-01-31T14:58:16;98894.16;;;3.51;84.38
4024;BME280;2026;51.002;13.668;2023-01-31T15:03:25;98898.66;;;3.57;83.19
4024;BME280;2026;51.002;13.668;2023-01-31T15:08:35;98903.56;;;3.52;83.35
4024;BME280;2026;51.002;13.668;2023-01-31T15:13:44;98891.72;;;3.50;83.29
4024;BME280;2026;51.002;13.668;2023-01-31T15:18:51;98897.75;;;3.42;84.74
4024;BME280;2026;51.002;13.668;2023-01-31T15:23:58;98893.03;;;3.45;84.70
4024;BME280;2026;51.002;13.668;2023-01-31T15:29:02;98908.50;;;3.30;84.96
4024;BME280;2026;51.002;13.668;2023-01-31T15:34:13;98899.91;;;3.30;85.73
4024;BME280;2026;51.002;13.668;2023-01-31T15:39:22;98873.19;;;3.29;85.79
4024;BME280;2026;51.002;13.668;2023-01-31T15:44:27;98857.06;;;3.19;85.91
4024;BME280;2026;51.002;13.668;2023-01-31T15:49:33;98897.22;;;3.15;85.87
4024;BME280;2026;51.002;13.668;2023-01-31T15:54:55;98892.03;;;3.15;86.33
4024;BME280;2026;51.002;13.668;2023-01-31T15:59:59;98889.13;;;3.10;86.75
4024;BME280;2026;51.002;13.668;2023-01-31T16:05:22;98900.50;;;3.00;87.30
4024;BME280;2026;51.002;13.668;2023-01-31T16:10:28;98886.28;;;2.96;87.34
4024;BME280;2026;51.002;13.668;2023-01-31T16:15:31;98911.84;;;2.91;88.18
4024;BME280;2026;51.002;13.668;2023-01-31T16:20:37;98888.69;;;2.89;87.53
4024;BME280;2026;51.002;13.668;2023-01-31T16:25:49;98914.59;;;2.81;88.40
4024;BME280;2026;51.002;13.668;2023-01-31T16:31:02;98896.47;;;2.89;88.27
4024;BME280;2026;51.002;13.668;2023-01-31T16:36:09;98900.66;;;2.90;87.46
4024;BME280;2026;51.002;13.668;2023-01-31T16:41:44;98898.88;;;2.99;87.83
4024;BME280;2026;51.002;13.668;2023-01-31T16:46:49;98896.91;;;3.01;87.42
4024;BME280;2026;51.002;13.668;2023-01-31T16:51:54;98896.59;;;3.04;87.20
4024;BME280;2026;51.002;13.668;2023-01-31T16:57:18;98886.72;;;3.08;87.58
4024;BME280;2026;51.002;13.668;2023-01-31T17:02:24;98901.44;;;3.08;87.79
4024;BME280;2026;51.002;13.668;2023-01-31T17:07:30;98903.72;;;3.02;87.93
4024;BME280;2026;51.002;13.668;2023-01-31T17:12:37;98901.78;;;3.04;89.05
4024;BME280;2026;51.002;13.668;2023-01-31T17:17:41;98899.31;;;3.11;88.50
4024;BME280;2026;51.002;13.668;2023-01-31T17:22:45;98911.75;;;3.24;88.66
4024;BME280;2026;51.002;13.668;2023-01-31T17:28:05;98918.34;;;3.35;87.59
4024;BME280;2026;51.002;13.668;2023-01-31T17:33:11;98891.94;;;3.40;87.79
4024;BME280;2026;51.002;13.668;2023-01-31T17:38:14;98914.94;;;3.43;87.92
4024;BME280;2026;51.002;13.668;2023-01-31T17:43:20;98905.03;;;3.46;87.29
4024;BME280;2026;51.002;13.668;2023-01-31T17:48:25;98910.72;;;3.42;88.19
4024;BME280;2026;51.002;13.668;2023-01-31T17:53:30;98890.75;;;3.51;87.87
4024;BME280;2026;51.002;13.668;2023-01-31T17:58:49;98909.88;;;3.50;87.75
4024;BME280;2026;51.002;13.668;2023-01-31T18:03:52;98890.06;;;3.57;87.32
4024;BME280;2026;51.002;13.668;2023-01-31T18:09:00;98889.09;;;3.58;87.04
4024;BME280;2026;51.002;13.668;2023-01-31T18:14:04;98876.41;;;3.71;85.95
4024;BME280;2026;51.002;13.668;2023-01-31T18:19:07;98890.44;;;3.77;85.02
4024;BME280;2026;51.002;13.668;2023-01-31T18:24:12;98866.69;;;3.88;84.32
4024;BME280;2026;51.002;13.668;2023-01-31T18:29:16;98897.50;;;3.92;84.08
4024;BME280;2026;51.002;13.668;2023-01-31T18:34:21;98871.03;;;3.96;84.39
4024;BME280;2026;51.002;13.668;2023-01-31T18:39:24;98845.56;;;4.00;83.83
4024;BME280;2026;51.002;13.668;2023-01-31T18:44:28;98857.38;;;4.03;83.26
4024;BME280;2026;51.002;13.668;2023-01-31T18:49:31;98855.06;;;4.08;83.63
4024;BME280;2026;51.002;13.668;2023-01-31T18:54:35;98843.88;;;4.07;83.78
4024;BME280;2026;51.002;13.668;2023-01-31T18:59:40;98862.69;;;4.09;83.67
4024;BME280;2026;51.002;13.668;2023-01-31T19:04:43;98858.13;;;4.11;83.17
4024;BME280;2026;51.002;13.668;2023-01-31T19:09:46;98805.88;;;4.14;82.51
4024;BME280;2026;51.002;13.668;2023-01-31T19:14:50;98842.28;;;4.06;83.19
4024;BME280;2026;51.002;13.668;2023-01-31T19:19:57;98855.25;;;4.06;82.98
4024;BME280;2026;51.002;13.668;2023-01-31T19:24:59;98853.00;;;4.03;83.00
4024;BME280;2026;51.002;13.668;2023-01-31T19:30:05;98833.75;;;4.21;82.92
4024;BME280;2026;51.002;13.668;2023-01-31T19:35:08;98847.59;;;4.28;82.18
4024;BME280;2026;51.002;13.668;2023-01-31T19:40:12;98839.38;;;4.24;82.83
4024;BME280;2026;51.002;13.668;2023-01-31T19:45:16;98829.09;;;4.31;82.09
4024;BME280;2026;51.002;13.668;2023-01-31T19:50:23;98836.19;;;4.37;82.29
4024;BME280;2026;51.002;13.668;2023-01-31T19:55:26;98819.78;;;4.37;81.01
4024;BME280;2026;51.002;13.668;2023-01-31T20:00:30;98815.22;;;4.39;81.31
4024;BME280;2026;51.002;13.668;2023-01-31T20:05:33;98837.16;;;4.36;82.98
4024;BME280;2026;51.002;13.668;2023-01-31T20:10:36;98854.69;;;4.34;83.02
4024;BME280;2026;51.002;13.668;2023-01-31T20:15:41;98872.13;;;4.25;84.31
4024;BME280;2026;51.002;13.668;2023-01-31T20:20:44;98842.22;;;4.14;86.05
4024;BME280;2026;51.002;13.668;2023-01-31T20:25:47;98832.81;;;4.13;86.00
4024;BME280;2026;51.002;13.668;2023-01-31T20:30:52;98852.13;;;4.11;86.64
4024;BME280;2026;51.002;13.668;2023-01-31T20:35:56;98850.75;;;4.00;86.90
4024;BME280;2026;51.002;13.668;2023-01-31T20:40:59;98830.69;;;4.17;85.07
4024;BME280;2026;51.002;13.668;2023-01-31T20:46:05;98823.28;;;4.29;84.86
4024;BME280;2026;51.002;13.668;2023-01-31T20:51:08;98821.66;;;4.28;84.43
4024;BME280;2026;51.002;13.668;2023-01-31T20:56:12;98807.50;;;4.31;83.33
4024;BME280;2026;51.002;13.668;2023-01-31T21:01:16;98808.78;;;4.35;84.38
4024;BME280;2026;51.002;13.668;2023-01-31T21:06:19;98814.16;;;4.33;84.38
4024;BME280;2026;51.002;13.668;2023-01-31T21:11:22;98853.38;;;4.15;86.74
4024;BME280;2026;51.002;13.668;2023-01-31T21:16:26;98859.53;;;3.99;89.32
4024;BME280;2026;51.002;13.668;2023-01-31T21:21:29;98866.91;;;3.55;91.89
4024;BME280;2026;51.002;13.668;2023-01-31T21:26:34;98854.88;;;3.63;91.36
4024;BME280;2026;51.002;13.668;2023-01-31T21:31:39;98860.00;;;3.71;91.66
4024;BME280;2026;51.002;13.668;2023-01-31T21:36:42;98858.50;;;3.77;90.68
4024;BME280;2026;51.002;13.668;2023-01-31T21:41:46;98859.69;;;3.74;91.22
4024;BME280;2026;51.002;13.668;2023-01-31T21:47:08;98878.75;;;3.81;90.71
4024;BME280;2026;51.002;13.668;2023-01-31T21:52:11;98889.59;;;3.85;89.77
4024;BME280;2026;51.002;13.668;2023-01-31T21:57:14;98881.41;;;3.96;89.89
4024;BME280;2026;51.002;13.668;2023-01-31T22:02:18;98887.28;;;3.90;89.93
4024;BME280;2026;51.002;13.668;2023-01-31T22:07:21;98878.81;;;3.96;88.90
4024;BME280;2026;51.002;13.668;2023-01-31T22:12:24;98864.66;;;4.07;87.20
4024;BME280;2026;51.002;13.668;2023-01-31T22:17:28;98860.84;;;4.18;86.92
4024;BME280;2026;51.002;13.668;2023-01-31T22:22:31;98864.88;;;4.21;86.35
4024;BME280;2026;51.002;13.668;2023-01-31T22:27:34;98854.75;;;4.26;86.32
4024;BME280;2026;51.002;13.668;2023-01-31T22:32:38;98843.50;;;4.34;85.80
4024;BME280;2026;51.002;13.668;2023-01-31T22:37:41;98838.78;;;4.37;85.32
4024;BME280;2026;51.002;13.668;2023-01-31T22:42:44;98838.88;;;4.44;84.60
4024;BME280;2026;51.002;13.668;2023-01-31T22:47:48;98852.47;;;4.46;84.27
4024;BME280;2026;51.002;13.668;2023-01-31T22:52:51;98850.41;;;4.41;84.42
4024;BME280;2026;51.002;13.668;2023-01-31T22:57:54;98855.88;;;4.47;83.48
4024;BME280;2026;51.002;13.668;2023-01-31T23:03:00;98862.16;;;4.52;82.67
4024;BME280;2026;51.002;13.668;2023-01-31T23:08:03;98858.13;;;4.50;82.43
4024;BME280;2026;51.002;13.668;2023-01-31T23:13:07;98869.09;;;4.37;82.99
4024;BME280;2026;51.002;13.668;2023-01-31T23:18:15;98856.94;;;4.37;82.99
4024;BME280;2026;51.002;13.668;2023-01-31T23:23:18;98868.25;;;4.45;82.39
4024;BME280;2026;51.002;13.668;2023-01-31T23:28:22;98863.50;;;4.48;82.62
4024;BME280;2026;51.002;13.668;2023-01-31T23:33:26;98871.69;;;4.60;82.05
4024;BME280;2026;51.002;13.668;2023-01-31T23:38:29;98869.06;;;4.60;81.35
4024;BME280;2026;51.002;13.668;2023-01-31T23:43:32;98885.97;;;4.56;81.78
4024;BME280;2026;51.002;13.668;2023-01-31T23:48:37;98887.75;;;4.55;80.73
4024;BME280;2026;51.002;13.668;2023-01-31T23:53:42;98895.69;;;4.39;81.32
4024;BME280;2026;51.002;13.668;2023-01-31T23:58:45;98900.66;;;4.49;80.20
